Time;durP1;ratioP1;P1;durP2;ratioP2;P2;SDS_P1;SDS_P2;PMS_P1;PMS_P2;Temp;Humidity;BMP_temperature;BMP_pressure;BME280_temperature;BME280_humidity;BME280_pressure;Samples;Min_cycle;Max_cycle;Signal;HPM_P1;HPM_P2
2022/05/24 00:07:52;;;;;;;;;;;19.80;61.20;;;;;;20896518;28;19990;-80
2022/05/24 00:18:00;;;;;;;;;;;19.80;61.30;;;;;;20897778;28;19923;-79
2022/05/24 00:28:01;;;;;;;;;;;19.80;61.30;;;;;;20878305;28;19909;-79
2022/05/24 00:38:01;;;;;;;;;;;19.70;61.30;;;;;;20877340;28;20008;-79
2022/05/24 00:48:06;;;;;;;;;;;19.80;61.50;;;;;;20875978;28;19908;-79
2022/05/24 00:58:11;;;;;;;;;;;19.80;61.50;;;;;;20876431;28;19939;-79
2022/05/24 01:08:11;;;;;;;;;;;19.70;61.50;;;;;;20891786;28;20004;-79
2022/05/24 01:18:12;;;;;;;;;;;19.70;61.60;;;;;;20908444;28;20383;-79
2022/05/24 01:28:14;;;;;;;;;;;19.70;61.70;;;;;;20873837;28;19916;-78
2022/05/24 01:38:21;;;;;;;;;;;19.70;61.80;;;;;;20872834;28;20368;-79
2022/05/24 01:48:23;;;;;;;;;;;19.80;62.10;;;;;;20888806;28;19938;-78
2022/05/24 01:58:26;;;;;;;;;;;19.70;63.10;;;;;;20871372;28;19916;-79
2022/05/24 02:08:27;;;;;;;;;;;19.70;63.50;;;;;;20870615;28;19978;-78
2022/05/24 02:18:27;;;;;;;;;;;19.70;64.10;;;;;;20871191;28;19917;-79
2022/05/24 02:28:29;;;;;;;;;;;19.70;64.30;;;;;;20870567;28;19936;-78
2022/05/24 02:38:29;;;;;;;;;;;19.70;64.60;;;;;;20885524;28;20289;-78
2022/05/24 02:48:30;;;;;;;;;;;19.60;64.60;;;;;;20902996;28;19912;-78
2022/05/24 02:58:30;;;;;;;;;;;19.70;64.60;;;;;;20868625;28;20446;-79
2022/05/24 03:18:50;;;;;;;;;;;19.60;64.60;;;;;;20885794;28;20323;-78
2022/05/24 03:28:51;;;;;;;;;;;19.60;64.60;;;;;;20882844;28;19915;-79
2022/05/24 03:38:51;;;;;;;;;;;19.60;64.70;;;;;;20866902;28;20015;-79
2022/05/24 03:48:52;;;;;;;;;;;19.60;64.60;;;;;;20881275;28;19940;-79
2022/05/24 03:58:54;;;;;;;;;;;19.50;64.50;;;;;;20865214;28;20330;-78
2022/05/24 04:08:55;;;;;;;;;;;19.60;64.50;;;;;;20898302;28;19913;-78
2022/05/24 04:18:55;;;;;;;;;;;19.50;64.40;;;;;;20862970;28;20450;-81
2022/05/24 04:28:57;;;;;;;;;;;19.50;64.30;;;;;;20859138;28;19912;-79
2022/05/24 04:38:58;;;;;;;;;;;19.50;64.20;;;;;;20894880;28;19916;-82
2022/05/24 04:48:58;;;;;;;;;;;19.50;64.20;;;;;;20874582;28;20261;-75
2022/05/24 04:58:59;;;;;;;;;;;19.50;64.10;;;;;;20859688;28;20308;-79
2022/05/24 05:08:59;;;;;;;;;;;19.50;64.00;;;;;;20874307;28;19909;-79
2022/05/24 05:19:00;;;;;;;;;;;19.50;63.80;;;;;;20857769;28;19921;-77
2022/05/24 05:29:00;;;;;;;;;;;19.50;63.70;;;;;;20858665;28;19920;-87
2022/05/24 05:39:01;;;;;;;;;;;19.60;63.50;;;;;;20874084;28;19970;-80
2022/05/24 05:49:02;;;;;;;;;;;19.50;63.40;;;;;;20888603;28;20453;-80
2022/05/24 05:59:03;;;;;;;;;;;19.50;63.20;;;;;;20888988;28;19920;-79
2022/05/24 06:09:03;;;;;;;;;;;19.60;63.20;;;;;;20871193;28;20284;-80
2022/05/24 06:19:04;;;;;;;;;;;19.50;63.10;;;;;;20887420;28;19944;-81
2022/05/24 06:29:05;;;;;;;;;;;19.50;63.10;;;;;;20887188;28;20428;-78
2022/05/24 06:39:06;;;;;;;;;;;19.60;63.10;;;;;;20874927;28;20014;-78
2022/05/24 06:49:08;;;;;;;;;;;19.60;63.10;;;;;;20805769;28;19944;-78
2022/05/24 07:09:31;;;;;;;;;;;19.60;63.10;;;;;;20821323;28;20297;-79
2022/05/24 07:19:32;;;;;;;;;;;19.60;63.10;;;;;;21195909;23;19921;-74
2022/05/24 07:29:33;;;;;;;;;;;19.60;63.20;;;;;;20822148;28;19912;-74
2022/05/24 07:39:34;;;;;;;;;;;19.60;63.20;;;;;;20867500;28;20020;-74
2022/05/24 07:49:34;;;;;;;;;;;19.60;63.20;;;;;;20868307;28;20022;-75
2022/05/24 07:59:35;;;;;;;;;;;19.60;63.20;;;;;;20898348;28;19936;-75
2022/05/24 08:09:36;;;;;;;;;;;19.70;63.20;;;;;;20898019;28;20334;-75
2022/05/24 08:19:36;;;;;;;;;;;19.70;63.30;;;;;;20896867;28;19940;-75
2022/05/24 08:29:37;;;;;;;;;;;19.70;63.30;;;;;;20894802;28;19916;-74
2022/05/24 08:39:38;;;;;;;;;;;19.70;63.40;;;;;;20894142;28;19983;-73
2022/05/24 08:49:39;;;;;;;;;;;19.70;63.40;;;;;;20893036;28;19909;-72
2022/05/24 08:59:51;;;;;;;;;;;19.70;63.60;;;;;;20892983;28;20015;-72
2022/05/24 09:10:04;;;;;;;;;;;19.70;63.80;;;;;;20908690;28;19934;-71
2022/05/24 09:20:31;;;;;;;;;;;19.70;63.80;;;;;;20890467;28;20345;-73
2022/05/24 09:30:31;;;;;;;;;;;19.70;63.90;;;;;;20885564;28;19923;-73
2022/05/24 09:40:42;;;;;;;;;;;19.70;63.90;;;;;;20893320;28;19913;-78
2022/05/24 09:50:43;;;;;;;;;;;19.70;63.80;;;;;;20876954;28;19923;-75
2022/05/24 10:00:51;;;;;;;;;;;19.70;63.90;;;;;;20877648;28;20272;-75
2022/05/24 10:10:56;;;;;;;;;;;19.60;63.90;;;;;;20892744;28;19917;-76
2022/05/24 10:21:07;;;;;;;;;;;19.60;64.00;;;;;;20873060;28;19916;-76
2022/05/24 10:31:16;;;;;;;;;;;19.60;64.20;;;;;;20868336;28;19920;-73
2022/05/24 10:41:33;;;;;;;;;;;19.50;64.20;;;;;;20854101;28;19916;-80
2022/05/24 10:51:48;;;;;;;;;;;19.50;64.30;;;;;;20852578;28;19923;-77
2022/05/24 11:01:51;;;;;;;;;;;19.50;64.40;;;;;;20815701;28;20369;-79
2022/05/24 11:11:54;;;;;;;;;;;19.50;64.40;;;;;;20784406;28;19917;-78
2022/05/24 11:22:21;;;;;;;;;;;19.50;64.50;;;;;;20784348;28;19921;-78
2022/05/24 11:32:34;;;;;;;;;;;19.50;64.40;;;;;;20831763;28;20020;-80
2022/05/24 11:42:42;;;;;;;;;;;19.50;64.40;;;;;;20816235;28;20411;-79
2022/05/24 11:52:45;;;;;;;;;;;19.60;64.60;;;;;;20881163;28;20372;-76
2022/05/24 12:13:28;;;;;;;;;;;19.60;64.70;;;;;;20669388;28;19917;-76
2022/05/24 12:23:30;;;;;;;;;;;19.60;64.70;;;;;;20819603;28;19944;-77
2022/05/24 12:33:30;;;;;;;;;;;19.60;64.70;;;;;;20832977;28;19921;-74
2022/05/24 12:43:31;;;;;;;;;;;19.60;64.70;;;;;;20828046;28;20361;-76
2022/05/24 12:53:31;;;;;;;;;;;19.60;64.50;;;;;;20829145;28;19952;-76
2022/05/24 13:03:32;;;;;;;;;;;19.60;64.40;;;;;;21065647;22;20379;-74
2022/05/24 13:13:45;;;;;;;;;;;19.60;64.30;;;;;;20739126;28;19967;-72
2022/05/24 13:23:46;;;;;;;;;;;19.60;64.10;;;;;;20759234;28;19917;-80
2022/05/24 13:33:47;;;;;;;;;;;19.60;63.90;;;;;;20735564;28;19975;-75
2022/05/24 13:43:47;;;;;;;;;;;19.70;63.70;;;;;;20739725;28;19917;-74
2022/05/24 13:53:48;;;;;;;;;;;19.80;63.50;;;;;;20688996;28;19921;-73
2022/05/24 14:03:49;;;;;;;;;;;19.80;63.00;;;;;;20728431;28;19924;-78
2022/05/24 14:13:51;;;;;;;;;;;19.90;62.90;;;;;;20691064;28;19917;-72
2022/05/24 14:23:52;;;;;;;;;;;19.90;61.80;;;;;;20706307;28;20004;-74
2022/05/24 14:33:52;;;;;;;;;;;19.90;61.90;;;;;;20722783;28;19932;-73
2022/05/24 14:44:04;;;;;;;;;;;19.90;61.80;;;;;;20701222;28;19917;-72
2022/05/24 14:54:04;;;;;;;;;;;19.90;61.00;;;;;;20737203;28;20012;-75
2022/05/24 15:04:05;;;;;;;;;;;20.00;59.80;;;;;;20728884;28;19956;-72
2022/05/24 15:24:26;;;;;;;;;;;20.10;59.00;;;;;;20737357;28;20326;-72
2022/05/24 15:34:26;;;;;;;;;;;20.10;58.90;;;;;;20734155;28;19955;-72
2022/05/24 15:44:27;;;;;;;;;;;20.10;58.90;;;;;;20751615;28;19914;-72
2022/05/24 15:54:27;;;;;;;;;;;20.10;58.90;;;;;;20747643;28;19917;-73
2022/05/24 16:14:48;;;;;;;;;;;20.20;58.60;;;;;;20733772;28;19913;-72
2022/05/24 16:24:48;;;;;;;;;;;20.30;58.50;;;;;;20730778;28;19920;-73
2022/05/24 16:34:49;;;;;;;;;;;20.30;58.30;;;;;;20712702;28;19913;-71
2022/05/24 16:44:49;;;;;;;;;;;20.40;58.40;;;;;;20728176;28;19913;-73
2022/05/24 17:05:09;;;;;;;;;;;20.40;58.50;;;;;;20746161;28;20270;-73
2022/05/24 17:15:13;;;;;;;;;;;20.50;58.60;;;;;;20732264;28;19972;-75
2022/05/24 17:25:17;;;;;;;;;;;20.40;58.60;;;;;;20731177;28;20304;-77
2022/05/24 17:35:18;;;;;;;;;;;20.30;58.70;;;;;;20733493;28;19917;-79
2022/05/24 17:45:18;;;;;;;;;;;20.30;58.80;;;;;;20729887;28;19913;-75
2022/05/24 17:55:19;;;;;;;;;;;20.20;58.80;;;;;;20710484;28;20561;-78
2022/05/24 18:05:20;;;;;;;;;;;20.20;58.90;;;;;;20726267;28;20332;-74
2022/05/24 18:15:20;;;;;;;;;;;20.20;59.10;;;;;;20712423;28;20378;-76
2022/05/24 18:33:06;;;;;;;;;;;20.10;59.10;;;;;;20714353;28;19960;-74
2022/05/24 18:36:15;;;;;;;;;;;20.10;59.30;;;;;;20727474;28;19975;-76
2022/05/24 18:46:15;;;;;;;;;;;20.00;59.40;;;;;;20697939;28;19913;-74
2022/05/24 18:56:16;;;;;;;;;;;19.90;59.50;;;;;;20725252;28;19940;-73
2022/05/24 19:06:16;;;;;;;;;;;20.00;59.70;;;;;;20708807;28;19917;-74
2022/05/24 19:16:17;;;;;;;;;;;19.90;59.80;;;;;;20723770;28;20293;-74
2022/05/24 19:26:18;;;;;;;;;;;19.90;59.90;;;;;;20690301;28;19921;-76
2022/05/24 19:36:18;;;;;;;;;;;19.80;60.00;;;;;;20706407;28;19917;-74
2022/05/24 19:46:19;;;;;;;;;;;19.80;60.10;;;;;;20723182;28;19944;-74
2022/05/24 19:56:19;;;;;;;;;;;19.80;60.20;;;;;;20719518;28;20534;-74
2022/05/24 20:06:22;;;;;;;;;;;19.80;60.30;;;;;;20720088;28;19971;-73
2022/05/24 20:16:23;;;;;;;;;;;19.80;60.40;;;;;;20735670;28;19924;-75
2022/05/24 20:26:24;;;;;;;;;;;19.70;60.40;;;;;;20734817;28;19914;-74
2022/05/24 20:36:24;;;;;;;;;;;19.70;60.50;;;;;;20734735;28;19917;-73
2022/05/24 20:46:25;;;;;;;;;;;19.70;60.60;;;;;;20717218;28;19921;-74
2022/05/24 20:56:25;;;;;;;;;;;19.70;60.60;;;;;;20698949;28;19914;-74
2022/05/24 21:06:26;;;;;;;;;;;19.70;60.70;;;;;;20730045;28;19921;-73
2022/05/24 21:16:26;;;;;;;;;;;19.60;60.70;;;;;;20747928;28;19960;-73
2022/05/24 21:36:47;;;;;;;;;;;19.60;60.80;;;;;;20715333;28;20250;-74
2022/05/24 21:46:47;;;;;;;;;;;19.60;60.80;;;;;;20710229;28;19921;-75
2022/05/24 21:56:48;;;;;;;;;;;19.60;60.90;;;;;;20744125;28;20019;-75
2022/05/24 22:06:48;;;;;;;;;;;19.60;61.60;;;;;;20740152;28;19910;-76
2022/05/24 22:16:49;;;;;;;;;;;19.60;61.00;;;;;;20705555;28;20372;-74
2022/05/24 22:26:49;;;;;;;;;;;19.50;61.00;;;;;;20708261;28;19920;-74
2022/05/24 22:36:50;;;;;;;;;;;19.50;61.00;;;;;;20724099;28;20381;-74
2022/05/24 22:46:50;;;;;;;;;;;19.50;61.00;;;;;;20707966;28;19917;-74
2022/05/24 22:56:51;;;;;;;;;;;19.50;61.10;;;;;;20722947;28;19924;-74
2022/05/24 23:06:54;;;;;;;;;;;19.50;61.10;;;;;;20706978;28;20210;-75
2022/05/24 23:16:54;;;;;;;;;;;19.50;61.10;;;;;;20706820;28;19965;-74
2022/05/24 23:26:55;;;;;;;;;;;19.40;61.00;;;;;;20732926;28;19952;-74
2022/05/24 23:36:57;;;;;;;;;;;19.40;61.00;;;;;;20721305;28;19976;-74
2022/05/24 23:46:57;;;;;;;;;;;19.40;61.00;;;;;;20736482;28;19917;-74
2022/05/24 23:56:58;;;;;;;;;;;19.40;61.00;;;;;;20735074;28;19917;-74
